sensor_id;sensor_type;location;lat;lon;timestamp;P1;durP1;ratioP1;P2;durP2;ratioP2
63953;SDS011;50128;52.094;5.232;2022-12-29T00:01:34;3.9;;;2.7;;
63953;SDS011;50128;52.094;5.232;2022-12-29T00:03:12;3.4;;;2.6;;
63953;SDS011;50128;52.094;5.232;2022-12-29T00:04:48;3.3;;;2.21;;
63953;SDS011;50128;52.094;5.232;2022-12-29T00:08:03;5.3;;;2.5;;
63953;SDS011;50128;52.094;5.232;2022-12-29T00:09:39;4.3;;;2.31;;
63953;SDS011;50128;52.094;5.232;2022-12-29T00:11:16;4.3;;;2.4;;
63953;SDS011;50128;52.094;5.232;2022-12-29T00:14:31;5.3;;;2.5;;
63953;SDS011;50128;52.094;5.232;2022-12-29T00:16:08;3.9;;;2.4;;
63953;SDS011;50128;52.094;5.232;2022-12-29T00:17:44;3.4;;;2.5;;
63953;SDS011;50128;52.094;5.232;2022-12-29T00:20:56;4.2;;;2.4;;
63953;SDS011;50128;52.094;5.232;2022-12-29T00:22:32;3.9;;;2.4;;
63953;SDS011;50128;52.094;5.232;2022-12-29T00:24:11;3.3;;;2.31;;
63953;SDS011;50128;52.094;5.232;2022-12-29T00:25:50;2.9;;;1.9;;
63953;SDS011;50128;52.094;5.232;2022-12-29T00:29:03;2.7;;;1.9;;
63953;SDS011;50128;52.094;5.232;2022-12-29T00:30:39;4.5;;;2.5;;
63953;SDS011;50128;52.094;5.232;2022-12-29T00:32:16;3.5;;;2.4;;
63953;SDS011;50128;52.094;5.232;2022-12-29T00:35:29;3.0;;;2.0;;
63953;SDS011;50128;52.094;5.232;2022-12-29T00:37:12;3.7;;;2.5;;
63953;SDS011;50128;52.094;5.232;2022-12-29T00:38:50;4.2;;;2.0;;
63953;SDS011;50128;52.094;5.232;2022-12-29T00:40:30;3.2;;;2.0;;
63953;SDS011;50128;52.094;5.232;2022-12-29T00:43:45;3.4;;;2.1;;
63953;SDS011;50128;52.094;5.232;2022-12-29T00:45:21;4.2;;;2.4;;
63953;SDS011;50128;52.094;5.232;2022-12-29T00:46:57;4.2;;;1.9;;
63953;SDS011;50128;52.094;5.232;2022-12-29T00:50:09;3.3;;;2.0;;
63953;SDS011;50128;52.094;5.232;2022-12-29T00:51:45;3.3;;;2.0;;
63953;SDS011;50128;52.094;5.232;2022-12-29T00:53:23;3.1;;;2.0;;
63953;SDS011;50128;52.094;5.232;2022-12-29T00:54:59;4.1;;;2.1;;
63953;SDS011;50128;52.094;5.232;2022-12-29T00:58:13;6.0;;;2.21;;
63953;SDS011;50128;52.094;5.232;2022-12-29T00:59:49;3.9;;;1.8;;
63953;SDS011;50128;52.094;5.232;2022-12-29T01:01:26;3.8;;;1.7;;
63953;SDS011;50128;52.094;5.232;2022-12-29T01:04:38;3.9;;;1.8;;
63953;SDS011;50128;52.094;5.232;2022-12-29T01:06:14;2.9;;;1.7;;
63953;SDS011;50128;52.094;5.232;2022-12-29T01:07:51;3.4;;;1.6;;
63953;SDS011;50128;52.094;5.232;2022-12-29T01:11:04;2.9;;;1.6;;
63953;SDS011;50128;52.094;5.232;2022-12-29T01:12:42;3.8;;;1.8;;
63953;SDS011;50128;52.094;5.232;2022-12-29T01:14:18;3.5;;;1.7;;
63953;SDS011;50128;52.094;5.232;2022-12-29T01:15:55;3.8;;;1.7;;
63953;SDS011;50128;52.094;5.232;2022-12-29T01:19:10;4.5;;;1.7;;
63953;SDS011;50128;52.094;5.232;2022-12-29T01:20:47;3.2;;;1.6;;
63953;SDS011;50128;52.094;5.232;2022-12-29T01:22:24;3.7;;;1.9;;
63953;SDS011;50128;52.094;5.232;2022-12-29T01:25:36;3.7;;;1.9;;
63953;SDS011;50128;52.094;5.232;2022-12-29T01:27:14;4.1;;;2.0;;
63953;SDS011;50128;52.094;5.232;2022-12-29T01:28:50;4.1;;;1.7;;
63953;SDS011;50128;52.094;5.232;2022-12-29T01:32:02;2.5;;;1.7;;
63953;SDS011;50128;52.094;5.232;2022-12-29T01:33:39;3.6;;;1.9;;
63953;SDS011;50128;52.094;5.232;2022-12-29T01:35:17;3.8;;;2.0;;
63953;SDS011;50128;52.094;5.232;2022-12-29T01:36:55;3.7;;;1.8;;
63953;SDS011;50128;52.094;5.232;2022-12-29T01:40:09;4.3;;;2.0;;
63953;SDS011;50128;52.094;5.232;2022-12-29T01:41:46;3.7;;;1.5;;
63953;SDS011;50128;52.094;5.232;2022-12-29T01:43:37;4.61;;;2.0;;
63953;SDS011;50128;52.094;5.232;2022-12-29T01:45:16;3.9;;;1.9;;
63953;SDS011;50128;52.094;5.232;2022-12-29T01:48:30;4.61;;;2.1;;
63953;SDS011;50128;52.094;5.232;2022-12-29T01:50:08;3.6;;;1.6;;
63953;SDS011;50128;52.094;5.232;2022-12-29T01:51:52;3.4;;;1.8;;
63953;SDS011;50128;52.094;5.232;2022-12-29T01:53:34;3.3;;;1.8;;
63953;SDS011;50128;52.094;5.232;2022-12-29T01:56:49;3.6;;;1.7;;
63953;SDS011;50128;52.094;5.232;2022-12-29T01:58:28;3.2;;;1.7;;
63953;SDS011;50128;52.094;5.232;2022-12-29T02:00:10;3.8;;;2.0;;
63953;SDS011;50128;52.094;5.232;2022-12-29T02:03:26;2.4;;;1.5;;
63953;SDS011;50128;52.094;5.232;2022-12-29T02:05:07;2.4;;;1.5;;
63953;SDS011;50128;52.094;5.232;2022-12-29T02:06:50;4.3;;;1.9;;
63953;SDS011;50128;52.094;5.232;2022-12-29T02:08:32;3.0;;;1.7;;
63953;SDS011;50128;52.094;5.232;2022-12-29T02:11:44;3.0;;;1.7;;
63953;SDS011;50128;52.094;5.232;2022-12-29T02:13:23;3.2;;;1.6;;
63953;SDS011;50128;52.094;5.232;2022-12-29T02:15:00;2.6;;;1.4;;
63953;SDS011;50128;52.094;5.232;2022-12-29T02:16:43;3.6;;;1.5;;
63953;SDS011;50128;52.094;5.232;2022-12-29T02:20:47;3.5;;;1.5;;
63953;SDS011;50128;52.094;5.232;2022-12-29T02:25:13;3.4;;;1.7;;
63953;SDS011;50128;52.094;5.232;2022-12-29T02:27:19;3.2;;;1.5;;
63953;SDS011;50128;52.094;5.232;2022-12-29T02:30:52;3.0;;;1.2;;
63953;SDS011;50128;52.094;5.232;2022-12-29T02:32:41;3.6;;;1.5;;
63953;SDS011;50128;52.094;5.232;2022-12-29T02:34:27;2.7;;;1.2;;
63953;SDS011;50128;52.094;5.232;2022-12-29T02:36:20;3.6;;;1.2;;
63953;SDS011;50128;52.094;5.232;2022-12-29T02:38:08;3.3;;;1.2;;
63953;SDS011;50128;52.094;5.232;2022-12-29T02:39:56;3.7;;;1.2;;
63953;SDS011;50128;52.094;5.232;2022-12-29T02:41:42;5.3;;;1.3;;
63953;SDS011;50128;52.094;5.232;2022-12-29T02:45:30;4.0;;;1.2;;
63953;SDS011;50128;52.094;5.232;2022-12-29T02:47:15;4.1;;;1.0;;
63953;SDS011;50128;52.094;5.232;2022-12-29T02:49:01;4.1;;;1.0;;
63953;SDS011;50128;52.094;5.232;2022-12-29T02:50:47;3.8;;;1.4;;
63953;SDS011;50128;52.094;5.232;2022-12-29T02:52:34;4.61;;;1.2;;
63953;SDS011;50128;52.094;5.232;2022-12-29T02:54:16;4.8;;;1.11;;
63953;SDS011;50128;52.094;5.232;2022-12-29T02:57:30;5.7;;;1.3;;
63953;SDS011;50128;52.094;5.232;2022-12-29T02:59:08;4.61;;;0.9;;
63953;SDS011;50128;52.094;5.232;2022-12-29T03:00:50;5.6;;;1.5;;
63953;SDS011;50128;52.094;5.232;2022-12-29T03:02:59;3.9;;;0.9;;
63953;SDS011;50128;52.094;5.232;2022-12-29T03:04:54;4.1;;;1.0;;
63953;SDS011;50128;52.094;5.232;2022-12-29T03:06:54;3.6;;;1.0;;
63953;SDS011;50128;52.094;5.232;2022-12-29T03:10:28;2.4;;;0.8;;
63953;SDS011;50128;52.094;5.232;2022-12-29T03:12:16;3.9;;;1.11;;
63953;SDS011;50128;52.094;5.232;2022-12-29T03:14:07;4.5;;;1.11;;
63953;SDS011;50128;52.094;5.232;2022-12-29T03:15:54;4.3;;;1.2;;
63953;SDS011;50128;52.094;5.232;2022-12-29T03:17:39;3.2;;;0.9;;
63953;SDS011;50128;52.094;5.232;2022-12-29T03:19:26;3.4;;;0.9;;
63953;SDS011;50128;52.094;5.232;2022-12-29T03:22:50;3.7;;;0.9;;
63953;SDS011;50128;52.094;5.232;2022-12-29T03:24:34;3.6;;;1.0;;
63953;SDS011;50128;52.094;5.232;2022-12-29T03:26:26;3.3;;;0.9;;
63953;SDS011;50128;52.094;5.232;2022-12-29T03:28:05;3.4;;;0.7;;
63953;SDS011;50128;52.094;5.232;2022-12-29T03:31:25;4.1;;;1.0;;
63953;SDS011;50128;52.094;5.232;2022-12-29T03:33:03;3.8;;;0.9;;
63953;SDS011;50128;52.094;5.232;2022-12-29T03:34:45;4.1;;;1.11;;
63953;SDS011;50128;52.094;5.232;2022-12-29T03:36:26;4.0;;;0.9;;
63953;SDS011;50128;52.094;5.232;2022-12-29T03:38:13;4.0;;;0.9;;
63953;SDS011;50128;52.094;5.232;2022-12-29T03:41:31;3.2;;;0.8;;
63953;SDS011;50128;52.094;5.232;2022-12-29T03:43:09;3.2;;;1.0;;
63953;SDS011;50128;52.094;5.232;2022-12-29T03:44:48;5.11;;;1.11;;
63953;SDS011;50128;52.094;5.232;2022-12-29T03:48:06;3.1;;;0.8;;
63953;SDS011;50128;52.094;5.232;2022-12-29T03:49:42;3.9;;;1.11;;
63953;SDS011;50128;52.094;5.232;2022-12-29T03:52:59;3.6;;;1.11;;
63953;SDS011;50128;52.094;5.232;2022-12-29T03:56:11;3.5;;;0.9;;
63953;SDS011;50128;52.094;5.232;2022-12-29T03:59:23;4.0;;;1.11;;
63953;SDS011;50128;52.094;5.232;2022-12-29T04:02:36;6.2;;;1.3;;
63953;SDS011;50128;52.094;5.232;2022-12-29T04:04:12;5.5;;;1.4;;
63953;SDS011;50128;52.094;5.232;2022-12-29T04:05:49;4.41;;;1.3;;
63953;SDS011;50128;52.094;5.232;2022-12-29T04:07:25;4.7;;;1.4;;
63953;SDS011;50128;52.094;5.232;2022-12-29T04:10:39;5.3;;;1.5;;
63953;SDS011;50128;52.094;5.232;2022-12-29T04:12:16;5.0;;;1.3;;
63953;SDS011;50128;52.094;5.232;2022-12-29T04:13:52;5.2;;;1.8;;
63953;SDS011;50128;52.094;5.232;2022-12-29T04:17:05;6.1;;;1.3;;
63953;SDS011;50128;52.094;5.232;2022-12-29T04:18:42;3.1;;;1.11;;
63953;SDS011;50128;52.094;5.232;2022-12-29T04:20:19;5.2;;;1.3;;
63953;SDS011;50128;52.094;5.232;2022-12-29T04:23:32;4.2;;;1.3;;
63953;SDS011;50128;52.094;5.232;2022-12-29T04:25:10;9.81;;;1.6;;
63953;SDS011;50128;52.094;5.232;2022-12-29T04:26:47;6.0;;;1.4;;
63953;SDS011;50128;52.094;5.232;2022-12-29T04:28:23;6.4;;;1.5;;
63953;SDS011;50128;52.094;5.232;2022-12-29T04:31:36;7.3;;;1.5;;
63953;SDS011;50128;52.094;5.232;2022-12-29T04:33:12;6.1;;;1.6;;
63953;SDS011;50128;52.094;5.232;2022-12-29T04:34:49;6.0;;;1.4;;
63953;SDS011;50128;52.094;5.232;2022-12-29T04:38:02;9.9;;;1.9;;
63953;SDS011;50128;52.094;5.232;2022-12-29T04:39:39;8.4;;;2.21;;
63953;SDS011;50128;52.094;5.232;2022-12-29T04:41:15;7.4;;;2.1;;
63953;SDS011;50128;52.094;5.232;2022-12-29T04:44:28;8.81;;;1.8;;
63953;SDS011;50128;52.094;5.232;2022-12-29T04:46:04;7.1;;;1.8;;
63953;SDS011;50128;52.094;5.232;2022-12-29T04:47:41;8.6;;;2.0;;
63953;SDS011;50128;52.094;5.232;2022-12-29T04:49:17;8.71;;;1.9;;
63953;SDS011;50128;52.094;5.232;2022-12-29T04:52:29;7.4;;;1.8;;
63953;SDS011;50128;52.094;5.232;2022-12-29T04:54:07;6.9;;;1.7;;
63953;SDS011;50128;52.094;5.232;2022-12-29T04:55:47;7.7;;;1.6;;
63953;SDS011;50128;52.094;5.232;2022-12-29T04:59:01;7.8;;;1.7;;
63953;SDS011;50128;52.094;5.232;2022-12-29T05:00:38;8.4;;;2.21;;
63953;SDS011;50128;52.094;5.232;2022-12-29T05:02:14;8.0;;;2.0;;
63953;SDS011;50128;52.094;5.232;2022-12-29T05:05:27;7.5;;;2.1;;
63953;SDS011;50128;52.094;5.232;2022-12-29T05:07:04;7.7;;;2.1;;
63953;SDS011;50128;52.094;5.232;2022-12-29T05:08:41;8.71;;;2.31;;
63953;SDS011;50128;52.094;5.232;2022-12-29T05:10:18;7.4;;;2.0;;
63953;SDS011;50128;52.094;5.232;2022-12-29T05:13:30;8.71;;;2.31;;
63953;SDS011;50128;52.094;5.232;2022-12-29T05:15:07;10.3;;;2.5;;
63953;SDS011;50128;52.094;5.232;2022-12-29T05:16:45;11.1;;;2.21;;
63953;SDS011;50128;52.094;5.232;2022-12-29T05:19:58;13.6;;;2.8;;
63953;SDS011;50128;52.094;5.232;2022-12-29T05:23:12;10.1;;;2.5;;
63953;SDS011;50128;52.094;5.232;2022-12-29T05:24:49;11.3;;;2.5;;
63953;SDS011;50128;52.094;5.232;2022-12-29T05:28:01;7.8;;;2.0;;
63953;SDS011;50128;52.094;5.232;2022-12-29T05:29:38;10.6;;;2.4;;
63953;SDS011;50128;52.094;5.232;2022-12-29T05:31:15;9.81;;;2.31;;
63953;SDS011;50128;52.094;5.232;2022-12-29T05:34:28;11.9;;;2.7;;
63953;SDS011;50128;52.094;5.232;2022-12-29T05:36:06;10.3;;;2.7;;
63953;SDS011;50128;52.094;5.232;2022-12-29T05:37:44;12.1;;;3.0;;
63953;SDS011;50128;52.094;5.232;2022-12-29T05:40:57;8.2;;;2.1;;
63953;SDS011;50128;52.094;5.232;2022-12-29T05:42:33;9.6;;;2.4;;
63953;SDS011;50128;52.094;5.232;2022-12-29T05:44:09;10.6;;;2.7;;
63953;SDS011;50128;52.094;5.232;2022-12-29T05:47:24;11.2;;;2.6;;
63953;SDS011;50128;52.094;5.232;2022-12-29T05:49:00;10.8;;;2.4;;
63953;SDS011;50128;52.094;5.232;2022-12-29T05:50:37;11.0;;;2.4;;
63953;SDS011;50128;52.094;5.232;2022-12-29T05:52:13;8.31;;;2.21;;
63953;SDS011;50128;52.094;5.232;2022-12-29T05:55:26;10.8;;;2.4;;
63953;SDS011;50128;52.094;5.232;2022-12-29T05:57:02;10.6;;;2.7;;
63953;SDS011;50128;52.094;5.232;2022-12-29T05:58:39;9.21;;;2.8;;
63953;SDS011;50128;52.094;5.232;2022-12-29T06:01:52;12.3;;;2.8;;
63953;SDS011;50128;52.094;5.232;2022-12-29T06:03:28;11.0;;;2.8;;
63953;SDS011;50128;52.094;5.232;2022-12-29T06:05:04;9.31;;;2.5;;
63953;SDS011;50128;52.094;5.232;2022-12-29T06:06:42;9.21;;;2.5;;
63953;SDS011;50128;52.094;5.232;2022-12-29T06:09:55;10.9;;;3.0;;
63953;SDS011;50128;52.094;5.232;2022-12-29T06:11:32;14.2;;;2.9;;
63953;SDS011;50128;52.094;5.232;2022-12-29T06:13:08;9.31;;;2.4;;
63953;SDS011;50128;52.094;5.232;2022-12-29T06:16:22;12.0;;;2.7;;
63953;SDS011;50128;52.094;5.232;2022-12-29T06:17:58;11.8;;;2.7;;
63953;SDS011;50128;52.094;5.232;2022-12-29T06:19:35;9.9;;;2.4;;
63953;SDS011;50128;52.094;5.232;2022-12-29T06:22:48;12.6;;;2.9;;
63953;SDS011;50128;52.094;5.232;2022-12-29T06:24:25;13.1;;;3.2;;
63953;SDS011;50128;52.094;5.232;2022-12-29T06:26:01;13.4;;;3.0;;
63953;SDS011;50128;52.094;5.232;2022-12-29T06:27:40;13.4;;;3.0;;
63953;SDS011;50128;52.094;5.232;2022-12-29T06:30:53;12.2;;;2.9;;
63953;SDS011;50128;52.094;5.232;2022-12-29T06:32:29;13.0;;;3.0;;
63953;SDS011;50128;52.094;5.232;2022-12-29T06:34:05;14.7;;;3.0;;
63953;SDS011;50128;52.094;5.232;2022-12-29T06:37:20;15.4;;;3.1;;
63953;SDS011;50128;52.094;5.232;2022-12-29T06:38:56;13.2;;;3.0;;
63953;SDS011;50128;52.094;5.232;2022-12-29T06:40:33;14.5;;;3.5;;
63953;SDS011;50128;52.094;5.232;2022-12-29T06:43:46;12.0;;;3.0;;
63953;SDS011;50128;52.094;5.232;2022-12-29T06:45:22;11.4;;;3.0;;
63953;SDS011;50128;52.094;5.232;2022-12-29T06:47:00;9.81;;;2.5;;
63953;SDS011;50128;52.094;5.232;2022-12-29T06:48:37;16.0;;;3.2;;
63953;SDS011;50128;52.094;5.232;2022-12-29T06:51:50;12.2;;;3.1;;
63953;SDS011;50128;52.094;5.232;2022-12-29T06:53:28;12.9;;;3.2;;
63953;SDS011;50128;52.094;5.232;2022-12-29T06:55:04;11.8;;;2.9;;
63953;SDS011;50128;52.094;5.232;2022-12-29T06:58:20;12.7;;;2.7;;
63953;SDS011;50128;52.094;5.232;2022-12-29T06:59:56;11.6;;;2.8;;
63953;SDS011;50128;52.094;5.232;2022-12-29T07:01:32;14.4;;;3.3;;
63953;SDS011;50128;52.094;5.232;2022-12-29T07:03:09;11.1;;;2.7;;
63953;SDS011;50128;52.094;5.232;2022-12-29T07:06:22;12.6;;;3.4;;
63953;SDS011;50128;52.094;5.232;2022-12-29T07:07:59;11.2;;;3.3;;
63953;SDS011;50128;52.094;5.232;2022-12-29T07:09:36;13.0;;;3.4;;
63953;SDS011;50128;52.094;5.232;2022-12-29T07:12:48;13.6;;;2.9;;
63953;SDS011;50128;52.094;5.232;2022-12-29T07:14:25;10.3;;;2.7;;
63953;SDS011;50128;52.094;5.232;2022-12-29T07:16:04;9.5;;;2.5;;
63953;SDS011;50128;52.094;5.232;2022-12-29T07:19:18;10.4;;;2.4;;
63953;SDS011;50128;52.094;5.232;2022-12-29T07:20:55;9.6;;;2.7;;
63953;SDS011;50128;52.094;5.232;2022-12-29T07:22:31;7.6;;;1.9;;
63953;SDS011;50128;52.094;5.232;2022-12-29T07:24:09;8.4;;;2.21;;
63953;SDS011;50128;52.094;5.232;2022-12-29T07:27:21;9.5;;;2.5;;
63953;SDS011;50128;52.094;5.232;2022-12-29T07:28:59;8.2;;;2.21;;
63953;SDS011;50128;52.094;5.232;2022-12-29T07:30:36;9.71;;;2.4;;
63953;SDS011;50128;52.094;5.232;2022-12-29T07:33:50;9.4;;;2.4;;
63953;SDS011;50128;52.094;5.232;2022-12-29T07:35:27;10.8;;;2.6;;
63953;SDS011;50128;52.094;5.232;2022-12-29T07:37:03;9.9;;;2.7;;
63953;SDS011;50128;52.094;5.232;2022-12-29T07:40:19;9.81;;;2.6;;
63953;SDS011;50128;52.094;5.232;2022-12-29T07:41:56;9.21;;;2.4;;
63953;SDS011;50128;52.094;5.232;2022-12-29T07:43:32;11.3;;;2.8;;
63953;SDS011;50128;52.094;5.232;2022-12-29T07:45:10;8.5;;;2.4;;
63953;SDS011;50128;52.094;5.232;2022-12-29T07:48:23;11.9;;;2.9;;
63953;SDS011;50128;52.094;5.232;2022-12-29T07:49:59;9.0;;;2.4;;
63953;SDS011;50128;52.094;5.232;2022-12-29T07:51:36;9.31;;;2.5;;
63953;SDS011;50128;52.094;5.232;2022-12-29T07:54:51;10.3;;;3.0;;
63953;SDS011;50128;52.094;5.232;2022-12-29T07:56:27;10.8;;;3.0;;
63953;SDS011;50128;52.094;5.232;2022-12-29T07:58:04;14.0;;;3.3;;
63953;SDS011;50128;52.094;5.232;2022-12-29T07:59:40;11.0;;;2.9;;
63953;SDS011;50128;52.094;5.232;2022-12-29T08:02:52;10.1;;;2.8;;
63953;SDS011;50128;52.094;5.232;2022-12-29T08:04:28;10.21;;;3.0;;
63953;SDS011;50128;52.094;5.232;2022-12-29T08:06:05;12.0;;;2.6;;
63953;SDS011;50128;52.094;5.232;2022-12-29T08:09:21;12.0;;;3.0;;
63953;SDS011;50128;52.094;5.232;2022-12-29T08:10:57;10.6;;;2.6;;
63953;SDS011;50128;52.094;5.232;2022-12-29T08:12:34;10.6;;;3.0;;
63953;SDS011;50128;52.094;5.232;2022-12-29T08:15:47;11.0;;;3.1;;
63953;SDS011;50128;52.094;5.232;2022-12-29T08:17:23;12.9;;;3.5;;
63953;SDS011;50128;52.094;5.232;2022-12-29T08:18:59;15.8;;;2.8;;
63953;SDS011;50128;52.094;5.232;2022-12-29T08:20:35;13.2;;;3.1;;
63953;SDS011;50128;52.094;5.232;2022-12-29T08:23:49;13.2;;;3.5;;
63953;SDS011;50128;52.094;5.232;2022-12-29T08:25:25;13.1;;;3.0;;
63953;SDS011;50128;52.094;5.232;2022-12-29T08:27:01;12.3;;;3.2;;
63953;SDS011;50128;52.094;5.232;2022-12-29T08:30:14;11.0;;;3.1;;
63953;SDS011;50128;52.094;5.232;2022-12-29T08:31:51;9.5;;;2.7;;
63953;SDS011;50128;52.094;5.232;2022-12-29T08:33:27;12.0;;;2.8;;
63953;SDS011;50128;52.094;5.232;2022-12-29T08:36:41;10.9;;;3.0;;
63953;SDS011;50128;52.094;5.232;2022-12-29T08:38:18;15.3;;;3.3;;
63953;SDS011;50128;52.094;5.232;2022-12-29T08:39:55;13.5;;;3.4;;
63953;SDS011;50128;52.094;5.232;2022-12-29T08:41:31;13.4;;;3.5;;
63953;SDS011;50128;52.094;5.232;2022-12-29T08:44:43;12.8;;;2.9;;
63953;SDS011;50128;52.094;5.232;2022-12-29T08:46:20;11.8;;;3.3;;
63953;SDS011;50128;52.094;5.232;2022-12-29T08:47:57;13.1;;;3.2;;
63953;SDS011;50128;52.094;5.232;2022-12-29T08:51:09;10.5;;;2.9;;
63953;SDS011;50128;52.094;5.232;2022-12-29T08:52:45;12.1;;;3.0;;
63953;SDS011;50128;52.094;5.232;2022-12-29T08:54:22;11.0;;;2.8;;
63953;SDS011;50128;52.094;5.232;2022-12-29T08:57:36;14.7;;;3.7;;
63953;SDS011;50128;52.094;5.232;2022-12-29T08:59:12;14.8;;;3.2;;
63953;SDS011;50128;52.094;5.232;2022-12-29T09:00:51;11.8;;;3.3;;
63953;SDS011;50128;52.094;5.232;2022-12-29T09:02:27;11.9;;;2.9;;
63953;SDS011;50128;52.094;5.232;2022-12-29T09:05:40;10.8;;;3.0;;
63953;SDS011;50128;52.094;5.232;2022-12-29T09:07:16;14.5;;;3.1;;
63953;SDS011;50128;52.094;5.232;2022-12-29T09:08:53;10.4;;;3.0;;
63953;SDS011;50128;52.094;5.232;2022-12-29T09:12:06;10.8;;;3.0;;
63953;SDS011;50128;52.094;5.232;2022-12-29T09:13:43;13.3;;;3.5;;
63953;SDS011;50128;52.094;5.232;2022-12-29T09:15:20;14.1;;;3.0;;
63953;SDS011;50128;52.094;5.232;2022-12-29T09:18:32;10.6;;;2.9;;
63953;SDS011;50128;52.094;5.232;2022-12-29T09:20:10;14.5;;;3.1;;
63953;SDS011;50128;52.094;5.232;2022-12-29T09:21:46;13.4;;;3.0;;
63953;SDS011;50128;52.094;5.232;2022-12-29T09:25:00;12.1;;;3.3;;
63953;SDS011;50128;52.094;5.232;2022-12-29T09:26:36;12.7;;;3.2;;
63953;SDS011;50128;52.094;5.232;2022-12-29T09:28:12;11.9;;;2.9;;
63953;SDS011;50128;52.094;5.232;2022-12-29T09:29:48;12.2;;;3.2;;
63953;SDS011;50128;52.094;5.232;2022-12-29T09:33:02;11.3;;;2.7;;
63953;SDS011;50128;52.094;5.232;2022-12-29T09:34:39;10.9;;;2.9;;
63953;SDS011;50128;52.094;5.232;2022-12-29T09:36:15;10.8;;;2.9;;
63953;SDS011;50128;52.094;5.232;2022-12-29T09:39:28;11.5;;;3.1;;
63953;SDS011;50128;52.094;5.232;2022-12-29T09:41:06;13.8;;;3.3;;
63953;SDS011;50128;52.094;5.232;2022-12-29T09:42:53;10.21;;;2.5;;
63953;SDS011;50128;52.094;5.232;2022-12-29T09:44:48;9.21;;;2.7;;
63953;SDS011;50128;52.094;5.232;2022-12-29T09:46:37;10.0;;;2.5;;
63953;SDS011;50128;52.094;5.232;2022-12-29T09:50:00;13.0;;;3.0;;
63953;SDS011;50128;52.094;5.232;2022-12-29T09:51:41;11.0;;;3.1;;
63953;SDS011;50128;52.094;5.232;2022-12-29T09:53:24;11.3;;;2.8;;
63953;SDS011;50128;52.094;5.232;2022-12-29T09:55:08;11.8;;;2.8;;
63953;SDS011;50128;52.094;5.232;2022-12-29T09:56:49;12.3;;;2.8;;
63953;SDS011;50128;52.094;5.232;2022-12-29T10:00:13;11.0;;;2.9;;
63953;SDS011;50128;52.094;5.232;2022-12-29T10:01:53;9.5;;;2.6;;
63953;SDS011;50128;52.094;5.232;2022-12-29T10:03:37;9.0;;;2.31;;
63953;SDS011;50128;52.094;5.232;2022-12-29T10:05:27;13.6;;;3.0;;
63953;SDS011;50128;52.094;5.232;2022-12-29T10:09:01;13.2;;;2.9;;
63953;SDS011;50128;52.094;5.232;2022-12-29T10:10:45;12.5;;;3.3;;
63953;SDS011;50128;52.094;5.232;2022-12-29T10:12:30;10.1;;;2.5;;
63953;SDS011;50128;52.094;5.232;2022-12-29T10:14:29;10.4;;;2.9;;
63953;SDS011;50128;52.094;5.232;2022-12-29T10:16:18;10.0;;;2.7;;
63953;SDS011;50128;52.094;5.232;2022-12-29T10:18:03;8.4;;;2.31;;
63953;SDS011;50128;52.094;5.232;2022-12-29T10:19:57;9.21;;;2.4;;
63953;SDS011;50128;52.094;5.232;2022-12-29T10:21:56;8.31;;;2.31;;
63953;SDS011;50128;52.094;5.232;2022-12-29T10:25:28;8.31;;;2.5;;
63953;SDS011;50128;52.094;5.232;2022-12-29T10:27:10;11.1;;;2.7;;
63953;SDS011;50128;52.094;5.232;2022-12-29T10:28:49;9.0;;;3.2;;
63953;SDS011;50128;52.094;5.232;2022-12-29T10:30:31;9.31;;;2.9;;
63953;SDS011;50128;52.094;5.232;2022-12-29T10:34:07;8.6;;;2.4;;
63953;SDS011;50128;52.094;5.232;2022-12-29T10:35:55;10.3;;;2.5;;
63953;SDS011;50128;52.094;5.232;2022-12-29T10:39:19;9.21;;;2.6;;
63953;SDS011;50128;52.094;5.232;2022-12-29T10:41:05;11.2;;;3.1;;
63953;SDS011;50128;52.094;5.232;2022-12-29T10:42:50;11.7;;;3.1;;
63953;SDS011;50128;52.094;5.232;2022-12-29T10:46:09;11.3;;;3.3;;
63953;SDS011;50128;52.094;5.232;2022-12-29T10:47:51;14.0;;;3.9;;
63953;SDS011;50128;52.094;5.232;2022-12-29T10:51:20;16.5;;;4.41;;
63953;SDS011;50128;52.094;5.232;2022-12-29T10:54:42;13.9;;;4.2;;
63953;SDS011;50128;52.094;5.232;2022-12-29T10:56:28;13.9;;;3.8;;
63953;SDS011;50128;52.094;5.232;2022-12-29T10:58:11;16.3;;;5.11;;
63953;SDS011;50128;52.094;5.232;2022-12-29T10:59:50;17.41;;;5.11;;
63953;SDS011;50128;52.094;5.232;2022-12-29T11:03:21;17.3;;;5.0;;
63953;SDS011;50128;52.094;5.232;2022-12-29T11:05:23;18.3;;;4.8;;
63953;SDS011;50128;52.094;5.232;2022-12-29T11:07:08;17.8;;;4.61;;
63953;SDS011;50128;52.094;5.232;2022-12-29T11:08:50;20.7;;;5.6;;
63953;SDS011;50128;52.094;5.232;2022-12-29T11:10:35;20.0;;;5.4;;
63953;SDS011;50128;52.094;5.232;2022-12-29T11:12:18;17.3;;;5.3;;
63953;SDS011;50128;52.094;5.232;2022-12-29T11:15:38;18.61;;;4.8;;
63953;SDS011;50128;52.094;5.232;2022-12-29T11:17:17;18.11;;;4.8;;
63953;SDS011;50128;52.094;5.232;2022-12-29T11:20:31;17.61;;;5.0;;
63953;SDS011;50128;52.094;5.232;2022-12-29T11:22:13;21.3;;;5.8;;
63953;SDS011;50128;52.094;5.232;2022-12-29T11:23:57;19.91;;;5.2;;
63953;SDS011;50128;52.094;5.232;2022-12-29T11:25:34;19.91;;;5.2;;
63953;SDS011;50128;52.094;5.232;2022-12-29T11:30:23;17.11;;;4.7;;
63953;SDS011;50128;52.094;5.232;2022-12-29T11:32:05;19.2;;;5.4;;
63953;SDS011;50128;52.094;5.232;2022-12-29T11:33:47;19.7;;;5.11;;
63953;SDS011;50128;52.094;5.232;2022-12-29T11:35:33;14.7;;;5.0;;
63953;SDS011;50128;52.094;5.232;2022-12-29T11:37:13;17.3;;;4.8;;
63953;SDS011;50128;52.094;5.232;2022-12-29T11:40:31;19.2;;;5.2;;
63953;SDS011;50128;52.094;5.232;2022-12-29T11:42:15;16.11;;;4.91;;
63953;SDS011;50128;52.094;5.232;2022-12-29T11:43:56;16.61;;;4.61;;
63953;SDS011;50128;52.094;5.232;2022-12-29T11:45:35;17.2;;;4.5;;
63953;SDS011;50128;52.094;5.232;2022-12-29T11:49:00;14.9;;;4.0;;
63953;SDS011;50128;52.094;5.232;2022-12-29T11:50:40;17.2;;;4.7;;
63953;SDS011;50128;52.094;5.232;2022-12-29T11:52:20;19.2;;;4.91;;
63953;SDS011;50128;52.094;5.232;2022-12-29T11:53:59;17.91;;;4.91;;
63953;SDS011;50128;52.094;5.232;2022-12-29T11:57:16;22.3;;;5.8;;
63953;SDS011;50128;52.094;5.232;2022-12-29T11:58:55;24.2;;;5.8;;
63953;SDS011;50128;52.094;5.232;2022-12-29T12:00:34;18.7;;;5.8;;
63953;SDS011;50128;52.094;5.232;2022-12-29T12:04:56;19.7;;;5.4;;
63953;SDS011;50128;52.094;5.232;2022-12-29T12:10:16;21.9;;;5.8;;
63953;SDS011;50128;52.094;5.232;2022-12-29T12:11:56;18.5;;;5.2;;
63953;SDS011;50128;52.094;5.232;2022-12-29T12:13:39;19.0;;;5.11;;
63953;SDS011;50128;52.094;5.232;2022-12-29T12:15:25;17.8;;;5.5;;
63953;SDS011;50128;52.094;5.232;2022-12-29T12:17:09;21.4;;;5.8;;
63953;SDS011;50128;52.094;5.232;2022-12-29T12:20:35;24.0;;;6.2;;
63953;SDS011;50128;52.094;5.232;2022-12-29T12:22:19;21.1;;;5.7;;
63953;SDS011;50128;52.094;5.232;2022-12-29T12:24:13;20.11;;;5.6;;
63953;SDS011;50128;52.094;5.232;2022-12-29T12:26:12;20.0;;;5.4;;
63953;SDS011;50128;52.094;5.232;2022-12-29T12:27:56;23.5;;;5.6;;
63953;SDS011;50128;52.094;5.232;2022-12-29T12:29:37;17.11;;;5.2;;
63953;SDS011;50128;52.094;5.232;2022-12-29T12:33:22;18.5;;;5.2;;
63953;SDS011;50128;52.094;5.232;2022-12-29T12:35:05;20.3;;;5.3;;
63953;SDS011;50128;52.094;5.232;2022-12-29T12:36:53;22.4;;;5.9;;
63953;SDS011;50128;52.094;5.232;2022-12-29T12:38:43;21.3;;;5.9;;
63953;SDS011;50128;52.094;5.232;2022-12-29T12:40:34;20.2;;;5.5;;
63953;SDS011;50128;52.094;5.232;2022-12-29T12:42:23;19.7;;;5.2;;
63953;SDS011;50128;52.094;5.232;2022-12-29T12:44:12;18.3;;;5.11;;
63953;SDS011;50128;52.094;5.232;2022-12-29T12:47:56;21.3;;;5.2;;
63953;SDS011;50128;52.094;5.232;2022-12-29T12:49:54;21.4;;;4.91;;
63953;SDS011;50128;52.094;5.232;2022-12-29T12:52:13;17.91;;;4.7;;
63953;SDS011;50128;52.094;5.232;2022-12-29T12:54:14;22.2;;;5.4;;
63953;SDS011;50128;52.094;5.232;2022-12-29T12:56:11;20.41;;;5.4;;
63953;SDS011;50128;52.094;5.232;2022-12-29T12:58:52;17.8;;;4.91;;
63953;SDS011;50128;52.094;5.232;2022-12-29T13:02:29;14.8;;;4.5;;
63953;SDS011;50128;52.094;5.232;2022-12-29T13:04:52;17.2;;;4.8;;
63953;SDS011;50128;52.094;5.232;2022-12-29T13:06:42;14.6;;;4.41;;
63953;SDS011;50128;52.094;5.232;2022-12-29T13:08:42;17.41;;;4.61;;
63953;SDS011;50128;52.094;5.232;2022-12-29T13:10:39;15.3;;;4.2;;
63953;SDS011;50128;52.094;5.232;2022-12-29T13:12:20;14.3;;;3.9;;
63953;SDS011;50128;52.094;5.232;2022-12-29T13:14:12;16.7;;;4.5;;